createdAt,value
2023-02-26T00:02:02.361Z,2.65
2023-02-26T00:04:28.796Z,2.45
2023-02-26T00:06:57.352Z,2.20
2023-02-26T00:09:24.917Z,2.15
2023-02-26T00:11:51.433Z,2.33
2023-02-26T00:14:18.111Z,2.40
2023-02-26T00:16:44.557Z,2.40
2023-02-26T00:19:10.901Z,2.22
2023-02-26T00:21:37.301Z,2.10
2023-02-26T00:24:03.651Z,2.30
2023-02-26T00:26:30.298Z,2.15
2023-02-26T00:28:56.899Z,2.42
2023-02-26T00:31:26.303Z,2.22
2023-02-26T00:33:52.660Z,2.80
2023-02-26T00:36:19.020Z,2.30
2023-02-26T00:38:45.423Z,2.42
2023-02-26T00:41:11.979Z,2.80
2023-02-26T00:43:38.364Z,2.42
2023-02-26T00:46:04.718Z,2.47
2023-02-26T00:48:31.182Z,3.10
2023-02-26T00:50:57.468Z,2.53
2023-02-26T00:53:23.810Z,2.47
2023-02-26T00:55:50.127Z,2.10
2023-02-26T00:58:16.439Z,2.33
2023-02-26T01:00:42.743Z,2.30
2023-02-26T01:03:09.048Z,2.10
2023-02-26T01:05:35.372Z,2.37
2023-02-26T01:08:01.703Z,2.50
2023-02-26T01:10:28.085Z,1.77
2023-02-26T01:12:56.043Z,2.17
2023-02-26T01:15:22.385Z,2.30
2023-02-26T01:17:48.743Z,1.83
2023-02-26T01:20:15.078Z,1.95
2023-02-26T01:22:41.421Z,2.35
2023-02-26T01:25:07.736Z,1.90
2023-02-26T01:27:34.090Z,2.22
2023-02-26T01:30:00.415Z,1.95
2023-02-26T01:32:26.800Z,2.17
2023-02-26T01:34:53.216Z,2.15
2023-02-26T01:37:19.586Z,2.40
2023-02-26T01:39:45.956Z,2.10
2023-02-26T01:42:12.603Z,2.22
2023-02-26T01:44:38.938Z,2.10
2023-02-26T01:47:05.505Z,2.57
2023-02-26T01:49:31.853Z,2.43
2023-02-26T01:51:58.283Z,1.90
2023-02-26T01:54:24.620Z,2.67
2023-02-26T01:56:51.024Z,2.70
2023-02-26T01:59:17.442Z,2.70
2023-02-26T02:01:43.736Z,2.42
2023-02-26T02:04:10.026Z,2.45
2023-02-26T02:06:36.325Z,3.27
2023-02-26T02:09:02.644Z,2.60
2023-02-26T02:11:29.058Z,2.77
2023-02-26T02:13:55.362Z,2.70
2023-02-26T02:16:21.711Z,3.62
2023-02-26T02:18:48.087Z,3.03
2023-02-26T02:21:14.407Z,2.92
2023-02-26T02:23:40.719Z,3.10
2023-02-26T02:26:07.259Z,3.00
2023-02-26T02:28:33.752Z,2.67
2023-02-26T02:31:00.128Z,2.80
2023-02-26T02:33:26.485Z,2.50
2023-02-26T02:35:52.783Z,2.70
2023-02-26T02:38:19.083Z,2.97
2023-02-26T02:40:45.399Z,2.72
2023-02-26T02:43:11.959Z,3.10
2023-02-26T02:45:38.358Z,2.93
2023-02-26T02:48:05.449Z,3.45
2023-02-26T02:50:32.050Z,3.87
2023-02-26T02:52:58.353Z,3.40
2023-02-26T02:55:24.798Z,2.97
2023-02-26T02:57:51.102Z,3.10
2023-02-26T03:00:17.427Z,3.55
2023-02-26T03:02:43.886Z,3.37
2023-02-26T03:05:10.239Z,2.97
2023-02-26T03:07:36.640Z,3.03
2023-02-26T03:10:02.974Z,3.67
2023-02-26T03:12:29.287Z,3.53
2023-02-26T03:14:55.593Z,3.40
2023-02-26T03:17:21.901Z,3.30
2023-02-26T03:19:48.228Z,3.50
2023-02-26T03:22:14.569Z,3.20
2023-02-26T03:24:40.876Z,3.60
2023-02-26T03:27:07.721Z,3.50
2023-02-26T03:29:34.025Z,3.43
2023-02-26T03:32:00.475Z,3.90
2023-02-26T03:34:26.850Z,3.00
2023-02-26T03:36:53.184Z,3.53
2023-02-26T03:39:19.666Z,2.85
2023-02-26T03:41:46.025Z,2.85
2023-02-26T03:44:12.352Z,3.07
2023-02-26T03:46:38.686Z,2.83
2023-02-26T03:49:05.895Z,3.05
2023-02-26T03:51:32.246Z,2.90
2023-02-26T03:53:58.539Z,3.33
2023-02-26T03:56:25.216Z,3.50
2023-02-26T03:58:51.761Z,2.90
2023-02-26T04:01:18.750Z,3.40
2023-02-26T04:03:45.072Z,3.10
2023-02-26T04:06:11.384Z,3.00
2023-02-26T04:08:37.731Z,3.03
2023-02-26T04:11:04.178Z,2.90
2023-02-26T04:13:30.594Z,2.90
2023-02-26T04:15:56.894Z,3.00
2023-02-26T04:18:23.243Z,3.40
2023-02-26T04:20:49.767Z,2.75
2023-02-26T04:23:16.094Z,3.07
2023-02-26T04:25:42.401Z,2.90
2023-02-26T04:28:08.733Z,2.83
2023-02-26T04:30:35.112Z,2.50
2023-02-26T04:33:01.437Z,2.33
2023-02-26T04:35:27.760Z,2.57
2023-02-26T04:37:54.052Z,2.50
2023-02-26T04:40:20.385Z,2.53
2023-02-26T04:42:47.571Z,2.17
2023-02-26T04:45:14.036Z,2.62
2023-02-26T04:47:40.356Z,2.40
2023-02-26T04:50:06.734Z,2.12
2023-02-26T04:52:33.053Z,2.30
2023-02-26T04:54:59.414Z,2.25
2023-02-26T04:57:25.758Z,2.03
2023-02-26T04:59:52.111Z,2.55
2023-02-26T05:02:19.222Z,2.60
2023-02-26T05:04:45.552Z,2.50
2023-02-26T05:07:11.898Z,2.00
2023-02-26T05:09:38.254Z,2.53
2023-02-26T05:12:04.554Z,2.42
2023-02-26T05:14:30.875Z,2.17
2023-02-26T05:16:57.187Z,2.07
2023-02-26T05:19:23.552Z,2.33
2023-02-26T05:21:49.889Z,2.20
2023-02-26T05:24:16.210Z,2.40
2023-02-26T05:26:42.521Z,2.05
2023-02-26T05:29:08.832Z,1.90
2023-02-26T05:31:35.175Z,1.90
2023-02-26T05:34:01.524Z,2.35
2023-02-26T05:36:27.915Z,2.40
2023-02-26T05:38:54.258Z,2.45
2023-02-26T05:41:20.570Z,2.30
2023-02-26T05:43:46.870Z,2.53
2023-02-26T05:46:14.160Z,2.47
2023-02-26T05:48:40.499Z,2.22
2023-02-26T05:51:06.830Z,2.00
2023-02-26T05:53:33.129Z,2.27
2023-02-26T05:55:59.467Z,2.37
2023-02-26T05:58:25.804Z,2.40
2023-02-26T06:00:52.160Z,2.00
2023-02-26T06:03:18.533Z,2.50
2023-02-26T06:05:44.932Z,2.53
2023-02-26T06:08:15.602Z,2.40
2023-02-26T06:10:41.945Z,2.90
2023-02-26T06:13:08.256Z,2.20
2023-02-26T06:15:34.552Z,2.50
2023-02-26T06:18:00.857Z,2.93
2023-02-26T06:20:28.053Z,3.00
2023-02-26T06:22:54.341Z,2.53
2023-02-26T06:25:20.641Z,2.87
2023-02-26T06:27:46.970Z,2.70
2023-02-26T06:30:13.307Z,2.70
2023-02-26T06:32:39.711Z,3.00
2023-02-26T06:35:06.453Z,3.20
2023-02-26T06:37:32.901Z,2.70
2023-02-26T06:39:59.216Z,2.90
2023-02-26T06:42:25.540Z,2.60
2023-02-26T06:44:51.863Z,3.00
2023-02-26T06:47:18.241Z,2.70
2023-02-26T06:49:44.538Z,3.15
2023-02-26T06:52:10.886Z,2.93
2023-02-26T06:54:37.231Z,3.17
2023-02-26T06:57:03.597Z,2.77
2023-02-26T06:59:29.978Z,2.67
2023-02-26T07:01:57.415Z,2.57
2023-02-26T07:04:23.750Z,2.80
2023-02-26T07:06:50.091Z,2.90
2023-02-26T07:09:16.473Z,3.08
2023-02-26T07:11:42.800Z,3.93
2023-02-26T07:14:09.120Z,2.50
2023-02-26T07:16:35.547Z,2.40
2023-02-26T07:19:01.952Z,2.80
2023-02-26T07:21:28.282Z,2.60
2023-02-26T07:23:54.597Z,3.20
2023-02-26T07:26:20.975Z,2.87
2023-02-26T07:28:47.290Z,3.03
2023-02-26T07:31:13.675Z,2.92
2023-02-26T07:33:40.055Z,3.40
2023-02-26T07:36:06.664Z,4.55
2023-02-26T07:38:32.976Z,3.30
2023-02-26T07:40:59.296Z,2.60
2023-02-26T07:43:25.607Z,2.60
2023-02-26T07:45:52.114Z,3.17
2023-02-26T07:48:18.537Z,3.17
2023-02-26T07:50:45.051Z,2.40
2023-02-26T07:53:11.393Z,2.30
2023-02-26T07:55:37.689Z,2.70
2023-02-26T07:58:04.005Z,2.65
2023-02-26T08:00:30.313Z,3.30
2023-02-26T08:02:56.616Z,2.60
2023-02-26T08:05:22.948Z,3.33
2023-02-26T08:07:49.275Z,3.08
2023-02-26T08:10:15.597Z,2.80
2023-02-26T08:12:41.907Z,2.20
2023-02-26T08:15:08.296Z,2.45
2023-02-26T08:17:34.654Z,2.43
2023-02-26T08:20:01.004Z,3.55
2023-02-26T08:22:27.449Z,3.20
2023-02-26T08:24:53.854Z,3.70
2023-02-26T08:27:20.214Z,2.80
2023-02-26T08:29:46.579Z,2.47
2023-02-26T08:32:13.291Z,2.60
2023-02-26T08:34:39.731Z,2.60
2023-02-26T08:37:06.302Z,2.75
2023-02-26T08:39:35.280Z,2.60
2023-02-26T08:42:01.656Z,2.12
2023-02-26T08:44:27.983Z,2.37
2023-02-26T08:46:54.410Z,2.55
2023-02-26T08:49:20.740Z,3.03
2023-02-26T08:51:47.053Z,2.30
2023-02-26T08:54:13.590Z,2.70
2023-02-26T08:56:39.918Z,2.67
2023-02-26T08:59:06.299Z,2.28
2023-02-26T09:01:32.687Z,2.53
2023-02-26T09:03:59.086Z,2.72
2023-02-26T09:06:25.744Z,2.40
2023-02-26T09:08:52.294Z,2.20
2023-02-26T09:11:18.647Z,2.05
2023-02-26T09:13:44.974Z,2.53
2023-02-26T09:16:11.318Z,2.30
2023-02-26T09:18:37.672Z,1.92
2023-02-26T09:21:04.051Z,2.03
2023-02-26T09:23:30.401Z,2.15
2023-02-26T09:25:56.786Z,2.15
2023-02-26T09:28:23.218Z,2.65
2023-02-26T09:30:49.559Z,2.20
2023-02-26T09:33:15.888Z,1.67
2023-02-26T09:35:42.219Z,2.03
2023-02-26T09:38:08.568Z,1.83
2023-02-26T09:40:34.867Z,2.15
2023-02-26T09:43:01.193Z,2.10
2023-02-26T09:45:27.554Z,1.75
2023-02-26T09:47:53.895Z,1.77
2023-02-26T09:50:20.247Z,1.80
2023-02-26T09:52:46.861Z,2.17
2023-02-26T09:55:13.306Z,1.90
2023-02-26T09:57:40.020Z,1.70
2023-02-26T10:00:06.366Z,2.03
2023-02-26T10:02:34.388Z,1.80
2023-02-26T10:05:00.688Z,1.60
2023-02-26T10:07:27.197Z,1.40
2023-02-26T10:09:53.544Z,1.30
2023-02-26T10:12:19.859Z,1.60
2023-02-26T10:14:46.449Z,1.52
2023-02-26T10:17:14.683Z,1.50
2023-02-26T10:19:41.028Z,1.45
2023-02-26T10:22:07.417Z,1.58
2023-02-26T10:24:33.731Z,1.60
2023-02-26T10:27:01.539Z,1.35
2023-02-26T10:29:27.862Z,1.62
2023-02-26T10:31:54.267Z,1.30
2023-02-26T10:34:20.640Z,1.70
2023-02-26T10:36:46.965Z,1.42
2023-02-26T10:39:13.272Z,1.45
2023-02-26T10:41:39.614Z,1.27
2023-02-26T10:44:05.910Z,1.73
2023-02-26T10:46:32.627Z,1.80
2023-02-26T10:48:59.797Z,1.30
2023-02-26T10:51:26.457Z,1.55
2023-02-26T10:53:53.026Z,1.45
2023-02-26T10:56:19.376Z,1.65
2023-02-26T10:58:45.686Z,1.25
2023-02-26T11:01:12.032Z,1.05
2023-02-26T11:03:38.369Z,1.17
2023-02-26T11:06:04.816Z,1.23
2023-02-26T11:08:31.149Z,1.20
2023-02-26T11:10:57.470Z,1.20
2023-02-26T11:13:23.890Z,1.50
2023-02-26T11:15:51.431Z,1.00
2023-02-26T11:18:18.454Z,1.35
2023-02-26T11:20:44.763Z,1.20
2023-02-26T11:23:11.058Z,1.27
2023-02-26T11:25:37.472Z,1.10
2023-02-26T11:28:03.839Z,1.62
2023-02-26T11:30:30.186Z,1.15
2023-02-26T11:32:56.525Z,0.93
2023-02-26T11:35:22.863Z,0.80
2023-02-26T11:37:49.348Z,1.20
2023-02-26T11:40:15.805Z,1.15
2023-02-26T11:42:42.141Z,1.27
2023-02-26T11:45:08.459Z,1.30
2023-02-26T11:47:34.778Z,1.08
2023-02-26T11:50:01.114Z,1.20
2023-02-26T11:52:27.432Z,1.10
2023-02-26T11:54:53.750Z,1.30
2023-02-26T11:57:20.082Z,1.10
2023-02-26T11:59:46.464Z,1.20
2023-02-26T12:02:12.866Z,1.45
2023-02-26T12:04:39.225Z,1.35
2023-02-26T12:07:05.552Z,1.33
2023-02-26T12:09:31.930Z,0.90
2023-02-26T12:11:58.291Z,1.10
2023-02-26T12:14:24.619Z,1.37
2023-02-26T12:16:50.919Z,1.20
2023-02-26T12:19:17.218Z,1.55
2023-02-26T12:21:43.532Z,1.40
2023-02-26T12:24:09.841Z,1.42
2023-02-26T12:26:36.147Z,1.15
2023-02-26T12:29:02.530Z,1.30
2023-02-26T12:31:29.418Z,1.30
2023-02-26T12:33:56.005Z,1.10
2023-02-26T12:36:23.324Z,1.17
2023-02-26T12:38:49.646Z,1.45
2023-02-26T12:41:15.953Z,1.20
2023-02-26T12:43:42.254Z,1.60
2023-02-26T12:46:08.617Z,1.37
2023-02-26T12:48:34.937Z,0.95
2023-02-26T12:51:01.937Z,1.10
2023-02-26T12:53:31.342Z,1.10
2023-02-26T12:55:57.642Z,1.30
2023-02-26T12:58:23.978Z,0.90
2023-02-26T13:00:50.316Z,1.35
2023-02-26T13:03:16.625Z,0.95
2023-02-26T13:05:42.939Z,1.10
2023-02-26T13:08:11.328Z,1.02
2023-02-26T13:10:37.704Z,1.30
2023-02-26T13:13:04.026Z,1.35
2023-02-26T13:15:30.487Z,1.23
2023-02-26T13:17:56.840Z,1.45
2023-02-26T13:20:23.172Z,1.27
2023-02-26T13:22:49.623Z,1.40
2023-02-26T13:25:15.953Z,1.40
2023-02-26T13:27:42.267Z,1.33
2023-02-26T13:30:08.590Z,1.30
2023-02-26T13:32:35.669Z,1.10
2023-02-26T13:35:02.067Z,1.05
2023-02-26T13:37:28.393Z,1.55
2023-02-26T13:39:54.950Z,1.30
2023-02-26T13:42:21.293Z,1.05
2023-02-26T13:44:47.653Z,1.55
2023-02-26T13:47:16.889Z,1.48
2023-02-26T13:49:46.002Z,1.20
2023-02-26T13:52:14.316Z,1.10
2023-02-26T13:54:42.323Z,1.45
2023-02-26T13:57:08.657Z,1.00
2023-02-26T13:59:36.307Z,1.15
2023-02-26T14:02:02.807Z,0.95
2023-02-26T14:04:29.186Z,0.98
2023-02-26T14:06:55.523Z,0.93
2023-02-26T14:09:21.837Z,1.65
2023-02-26T14:11:48.214Z,0.73
2023-02-26T14:14:15.349Z,1.08
2023-02-26T14:16:41.847Z,1.10
2023-02-26T14:19:08.267Z,1.08
2023-02-26T14:21:34.568Z,1.00
2023-02-26T14:24:01.101Z,1.65
2023-02-26T14:26:27.826Z,1.00
2023-02-26T14:28:55.902Z,1.08
2023-02-26T14:31:22.635Z,1.17
2023-02-26T14:33:49.149Z,1.33
2023-02-26T14:36:15.482Z,1.52
2023-02-26T14:38:42.783Z,1.52
2023-02-26T14:41:09.153Z,1.52
2023-02-26T14:43:35.930Z,1.35
2023-02-26T14:46:02.403Z,1.20
2023-02-26T14:48:32.949Z,1.40
2023-02-26T14:50:59.349Z,1.23
2023-02-26T14:53:25.718Z,1.30
2023-02-26T14:55:52.046Z,1.20
2023-02-26T14:58:18.481Z,1.20
2023-02-26T15:00:46.274Z,1.12
2023-02-26T15:03:13.716Z,1.10
2023-02-26T15:05:40.596Z,0.98
2023-02-26T15:08:06.938Z,0.98
2023-02-26T15:10:33.278Z,0.90
2023-02-26T15:12:59.585Z,1.02
2023-02-26T15:15:25.906Z,0.98
2023-02-26T15:17:52.204Z,0.80
2023-02-26T15:20:22.292Z,1.15
2023-02-26T15:22:48.642Z,0.98
2023-02-26T15:25:14.956Z,1.08
2023-02-26T15:27:41.257Z,1.02
2023-02-26T15:30:07.580Z,1.05
2023-02-26T15:32:34.031Z,0.90
2023-02-26T15:35:00.784Z,0.90
2023-02-26T15:37:27.158Z,1.40
2023-02-26T15:39:53.514Z,1.33
2023-02-26T15:42:19.824Z,1.52
2023-02-26T15:44:56.456Z,1.27
2023-02-26T15:47:23.576Z,1.58
2023-02-26T15:49:49.936Z,1.33
2023-02-26T15:52:16.273Z,1.45
2023-02-26T15:54:42.723Z,1.37
2023-02-26T15:57:09.537Z,2.33
2023-02-26T15:59:41.805Z,1.80
2023-02-26T16:02:08.144Z,1.65
2023-02-26T16:04:34.544Z,1.60
2023-02-26T16:07:01.440Z,1.80
2023-02-26T16:09:28.025Z,2.03
2023-02-26T16:11:56.250Z,1.20
2023-02-26T16:14:22.626Z,2.15
2023-02-26T16:16:48.937Z,1.87
2023-02-26T16:19:15.237Z,2.22
2023-02-26T16:21:41.543Z,1.62
2023-02-26T16:24:07.874Z,1.45
2023-02-26T16:26:34.213Z,1.85
2023-02-26T16:29:00.571Z,1.83
2023-02-26T16:31:27.709Z,2.35
2023-02-26T16:33:54.147Z,2.50
2023-02-26T16:36:24.704Z,2.10
2023-02-26T16:38:51.337Z,2.92
2023-02-26T16:41:17.672Z,1.80
2023-02-26T16:43:43.984Z,2.12
2023-02-26T16:46:10.310Z,1.85
2023-02-26T16:48:36.618Z,1.90
2023-02-26T16:51:04.271Z,1.95
2023-02-26T16:53:30.600Z,2.70
2023-02-26T16:55:56.953Z,2.45
2023-02-26T16:58:23.238Z,2.62
2023-02-26T17:00:49.618Z,2.58
2023-02-26T17:03:16.596Z,3.40
2023-02-26T17:05:42.895Z,2.75
2023-02-26T17:08:09.515Z,2.78
2023-02-26T17:10:36.019Z,3.05
2023-02-26T17:13:02.771Z,2.97
2023-02-26T17:15:29.182Z,2.50
2023-02-26T17:17:58.055Z,2.90
2023-02-26T17:20:24.485Z,3.22
2023-02-26T17:22:50.781Z,4.93
2023-02-26T17:25:17.186Z,4.60
2023-02-26T17:27:43.507Z,5.85
2023-02-26T17:30:10.904Z,5.00
2023-02-26T17:32:37.288Z,3.55
2023-02-26T17:35:06.203Z,2.67
2023-02-26T17:37:33.724Z,4.25
2023-02-26T17:40:00.075Z,1.65
2023-02-26T17:42:26.422Z,1.70
2023-02-26T17:44:52.950Z,1.92
2023-02-26T17:47:19.385Z,1.83
2023-02-26T17:49:46.800Z,1.87
2023-02-26T17:52:13.140Z,2.00
2023-02-26T17:54:39.486Z,2.22
2023-02-26T17:57:05.792Z,1.92
2023-02-26T17:59:32.132Z,2.00
2023-02-26T18:01:58.689Z,2.28
2023-02-26T18:04:25.108Z,2.20
2023-02-26T18:06:51.542Z,2.42
2023-02-26T18:09:17.983Z,2.05
2023-02-26T18:11:44.301Z,2.15
2023-02-26T18:14:11.182Z,1.73
2023-02-26T18:16:39.196Z,2.20
2023-02-26T18:19:06.416Z,2.42
2023-02-26T18:21:32.808Z,5.43
2023-02-26T18:24:01.130Z,2.50
2023-02-26T18:26:29.221Z,2.42
2023-02-26T18:28:58.684Z,2.50
2023-02-26T18:31:32.088Z,3.30
2023-02-26T18:33:58.864Z,2.78
2023-02-26T18:36:29.808Z,2.28
2023-02-26T18:39:02.225Z,2.65
2023-02-26T18:41:28.549Z,2.90
2023-02-26T18:43:54.873Z,2.33
2023-02-26T18:46:21.325Z,2.72
2023-02-26T18:48:47.675Z,3.08
2023-02-26T18:51:13.999Z,2.60
2023-02-26T18:53:40.682Z,2.80
2023-02-26T18:56:07.106Z,2.67
2023-02-26T18:58:33.427Z,3.08
2023-02-26T19:00:59.746Z,3.22
2023-02-26T19:03:26.174Z,3.50
2023-02-26T19:05:52.500Z,3.67
2023-02-26T19:08:18.789Z,4.00
2023-02-26T19:10:45.163Z,3.78
2023-02-26T19:13:11.552Z,4.12
2023-02-26T19:15:37.897Z,3.85
2023-02-26T19:18:04.209Z,4.35
2023-02-26T19:20:30.496Z,4.45
2023-02-26T19:22:56.958Z,4.07
2023-02-26T19:25:24.220Z,4.35
2023-02-26T19:27:53.286Z,4.45
2023-02-26T19:30:19.875Z,4.00
2023-02-26T19:32:46.249Z,5.03
2023-02-26T19:35:12.650Z,4.75
2023-02-26T19:37:39.010Z,4.12
2023-02-26T19:40:10.449Z,4.43
2023-02-26T19:42:36.902Z,3.80
2023-02-26T19:45:03.296Z,3.97
2023-02-26T19:47:29.606Z,3.28
2023-02-26T19:49:55.915Z,3.58
2023-02-26T19:52:22.226Z,3.50
2023-02-26T19:54:48.518Z,3.65
2023-02-26T19:57:14.898Z,3.50
2023-02-26T19:59:41.661Z,3.50
2023-02-26T20:02:09.596Z,3.05
2023-02-26T20:04:35.965Z,3.47
2023-02-26T20:07:02.280Z,3.37
2023-02-26T20:09:28.630Z,3.75
2023-02-26T20:11:55.041Z,3.65
2023-02-26T20:14:21.578Z,3.33
2023-02-26T20:16:47.885Z,3.25
2023-02-26T20:19:14.255Z,3.62
2023-02-26T20:21:40.621Z,4.07
2023-02-26T20:24:07.013Z,3.65
2023-02-26T20:26:33.342Z,3.15
2023-02-26T20:28:59.657Z,3.35
2023-02-26T20:31:26.356Z,3.10
2023-02-26T20:33:55.741Z,3.80
2023-02-26T20:36:22.081Z,3.20
2023-02-26T20:38:48.698Z,4.12
2023-02-26T20:41:15.042Z,3.30
2023-02-26T20:43:41.566Z,3.30
2023-02-26T20:46:07.867Z,3.65
2023-02-26T20:48:34.717Z,3.58
2023-02-26T20:51:01.068Z,3.37
2023-02-26T20:53:27.910Z,4.15
2023-02-26T20:55:54.321Z,3.10
2023-02-26T20:58:20.659Z,3.20
2023-02-26T21:00:47.368Z,2.90
2023-02-26T21:03:13.869Z,2.50
2023-02-26T21:05:41.810Z,2.80
2023-02-26T21:08:10.606Z,2.70
2023-02-26T21:10:37.122Z,2.72
2023-02-26T21:13:03.464Z,2.97
2023-02-26T21:15:29.773Z,2.75
2023-02-26T21:17:56.148Z,2.53
2023-02-26T21:20:23.503Z,2.40
2023-02-26T21:22:50.305Z,2.53
2023-02-26T21:25:16.820Z,2.15
2023-02-26T21:27:43.193Z,2.45
2023-02-26T21:30:09.697Z,2.67
2023-02-26T21:32:39.174Z,2.03
2023-02-26T21:35:05.572Z,2.08
2023-02-26T21:37:32.162Z,1.93
2023-02-26T21:39:58.488Z,2.35
2023-02-26T21:42:25.536Z,2.78
2023-02-26T21:44:51.865Z,2.40
2023-02-26T22:01:49.151Z,2.15
2023-02-26T22:04:15.615Z,2.20
2023-02-26T22:06:42.026Z,1.97
2023-02-26T22:09:08.348Z,2.12
2023-02-26T22:11:34.693Z,2.43
2023-02-26T22:14:01.049Z,2.17
2023-02-26T22:16:27.438Z,2.73
2023-02-26T22:18:53.780Z,2.50
2023-02-26T22:21:20.105Z,2.50
2023-02-26T22:23:46.411Z,2.30
2023-02-26T22:26:12.718Z,3.00
2023-02-26T22:28:39.026Z,3.12
2023-02-26T22:31:05.548Z,2.22
2023-02-26T22:33:31.997Z,1.80
2023-02-26T22:35:58.305Z,2.30
2023-02-26T22:38:24.635Z,2.03
2023-02-26T22:40:50.941Z,2.03
2023-02-26T22:43:17.405Z,1.77
2023-02-26T22:45:43.802Z,2.43
2023-02-26T22:48:10.124Z,2.63
2023-02-26T22:50:36.471Z,2.25
2023-02-26T22:53:02.860Z,2.17
2023-02-26T22:55:29.406Z,2.30
2023-02-26T22:57:55.720Z,2.07
2023-02-26T23:00:22.139Z,2.20
2023-02-26T23:02:48.485Z,1.83
2023-02-26T23:05:14.805Z,2.43
2023-02-26T23:07:41.126Z,2.20
2023-02-26T23:10:07.445Z,2.17
2023-02-26T23:12:33.740Z,2.40
2023-02-26T23:15:00.055Z,2.43
2023-02-26T23:17:26.391Z,2.67
2023-02-26T23:19:52.697Z,2.50
2023-02-26T23:22:21.130Z,2.40
2023-02-26T23:24:48.243Z,2.27
2023-02-26T23:27:14.621Z,2.23
2023-02-26T23:29:40.951Z,2.40
2023-02-26T23:32:07.580Z,2.30
2023-02-26T23:34:33.932Z,2.33
2023-02-26T23:37:00.247Z,2.40
2023-02-26T23:39:28.526Z,2.20
2023-02-26T23:41:55.325Z,2.90
2023-02-26T23:44:21.616Z,2.50
2023-02-26T23:46:47.931Z,2.43
2023-02-26T23:49:16.106Z,3.00
2023-02-26T23:51:42.427Z,2.47
2023-02-26T23:54:08.758Z,2.80
2023-02-26T23:56:35.056Z,2.60
2023-02-26T23:59:01.557Z,2.70
